sensor_id;sensor_type;location;lat;lon;timestamp;pressure;altitude;pressure_sealevel;temperature;humidity
69570;BME280;56781;42.292;23.146;2023-02-19T00:01:44;95980.63;;;-1.69;100.00
69570;BME280;56781;42.292;23.146;2023-02-19T00:04:17;96016.44;;;-1.43;100.00
69570;BME280;56781;42.292;23.146;2023-02-19T00:06:46;96000.69;;;-1.50;100.00
69570;BME280;56781;42.292;23.146;2023-02-19T00:09:17;96003.13;;;-1.48;100.00
69570;BME280;56781;42.292;23.146;2023-02-19T00:11:46;96014.50;;;-1.29;100.00
69570;BME280;56781;42.292;23.146;2023-02-19T00:14:16;96004.28;;;-1.38;100.00
69570;BME280;56781;42.292;23.146;2023-02-19T00:16:43;96007.88;;;-1.32;100.00
69570;BME280;56781;42.292;23.146;2023-02-19T00:19:13;95996.50;;;-1.26;100.00
69570;BME280;56781;42.292;23.146;2023-02-19T00:21:41;96032.41;;;-1.20;100.00
69570;BME280;56781;42.292;23.146;2023-02-19T00:24:10;96014.31;;;-2.05;100.00
69570;BME280;56781;42.292;23.146;2023-02-19T00:26:40;95980.34;;;-1.93;100.00
69570;BME280;56781;42.292;23.146;2023-02-19T00:29:11;95989.69;;;-2.04;100.00
69570;BME280;56781;42.292;23.146;2023-02-19T00:31:38;96010.59;;;-2.35;100.00
69570;BME280;56781;42.292;23.146;2023-02-19T00:34:06;96003.19;;;-2.00;100.00
69570;BME280;56781;42.292;23.146;2023-02-19T00:36:36;95985.19;;;-1.90;100.00
69570;BME280;56781;42.292;23.146;2023-02-19T00:39:06;96007.25;;;-1.66;100.00
69570;BME280;56781;42.292;23.146;2023-02-19T00:41:33;95984.22;;;-1.95;100.00
69570;BME280;56781;42.292;23.146;2023-02-19T00:44:03;95993.38;;;-2.11;100.00
69570;BME280;56781;42.292;23.146;2023-02-19T00:46:34;96030.66;;;-2.09;100.00
69570;BME280;56781;42.292;23.146;2023-02-19T00:49:03;95992.81;;;-2.27;100.00
69570;BME280;56781;42.292;23.146;2023-02-19T00:51:34;95979.50;;;-2.32;100.00
69570;BME280;56781;42.292;23.146;2023-02-19T00:54:02;95973.94;;;-2.04;100.00
69570;BME280;56781;42.292;23.146;2023-02-19T00:56:29;95996.44;;;-1.83;100.00
69570;BME280;56781;42.292;23.146;2023-02-19T00:58:56;96001.44;;;-1.68;100.00
69570;BME280;56781;42.292;23.146;2023-02-19T01:01:24;95984.31;;;-1.77;100.00
69570;BME280;56781;42.292;23.146;2023-02-19T01:03:51;95954.34;;;-1.94;100.00
69570;BME280;56781;42.292;23.146;2023-02-19T01:06:19;95981.31;;;-1.81;100.00
69570;BME280;56781;42.292;23.146;2023-02-19T01:08:47;95961.59;;;-1.90;100.00
69570;BME280;56781;42.292;23.146;2023-02-19T01:11:14;95954.03;;;-1.80;100.00
69570;BME280;56781;42.292;23.146;2023-02-19T01:13:42;95977.63;;;-1.73;100.00
69570;BME280;56781;42.292;23.146;2023-02-19T01:18:41;95960.28;;;-2.12;100.00
69570;BME280;56781;42.292;23.146;2023-02-19T01:21:14;95974.41;;;-2.13;100.00
69570;BME280;56781;42.292;23.146;2023-02-19T01:23:42;95989.34;;;-1.75;100.00
69570;BME280;56781;42.292;23.146;2023-02-19T01:26:18;95962.88;;;-1.67;100.00
69570;BME280;56781;42.292;23.146;2023-02-19T01:28:47;95968.88;;;-1.60;100.00
69570;BME280;56781;42.292;23.146;2023-02-19T01:31:17;96003.50;;;-1.45;100.00
69570;BME280;56781;42.292;23.146;2023-02-19T01:33:46;95955.75;;;-1.60;100.00
69570;BME280;56781;42.292;23.146;2023-02-19T01:36:14;95951.75;;;-1.38;100.00
69570;BME280;56781;42.292;23.146;2023-02-19T01:38:42;96006.38;;;-1.21;100.00
69570;BME280;56781;42.292;23.146;2023-02-19T01:41:12;95997.28;;;-1.19;100.00
69570;BME280;56781;42.292;23.146;2023-02-19T01:43:55;95965.59;;;-1.56;100.00
69570;BME280;56781;42.292;23.146;2023-02-19T01:46:32;95970.63;;;-1.86;100.00
69570;BME280;56781;42.292;23.146;2023-02-19T01:51:48;95950.69;;;-2.32;100.00
69570;BME280;56781;42.292;23.146;2023-02-19T01:54:22;95952.59;;;-2.07;100.00
69570;BME280;56781;42.292;23.146;2023-02-19T01:56:52;95958.66;;;-2.13;100.00
69570;BME280;56781;42.292;23.146;2023-02-19T01:59:20;95963.25;;;-1.95;100.00
69570;BME280;56781;42.292;23.146;2023-02-19T02:01:48;95985.75;;;-1.49;100.00
69570;BME280;56781;42.292;23.146;2023-02-19T02:04:16;95964.03;;;-1.63;100.00
69570;BME280;56781;42.292;23.146;2023-02-19T02:06:53;95960.41;;;-1.62;100.00
69570;BME280;56781;42.292;23.146;2023-02-19T02:09:27;95971.72;;;-1.68;100.00
69570;BME280;56781;42.292;23.146;2023-02-19T02:12:13;95964.63;;;-1.61;100.00
69570;BME280;56781;42.292;23.146;2023-02-19T02:14:42;95969.75;;;-1.73;100.00
69570;BME280;56781;42.292;23.146;2023-02-19T02:29:04;96027.09;;;-2.28;100.00
69570;BME280;56781;42.292;23.146;2023-02-19T02:31:42;95999.16;;;-2.61;100.00
69570;BME280;56781;42.292;23.146;2023-02-19T02:34:19;96025.25;;;-2.14;100.00
69570;BME280;56781;42.292;23.146;2023-02-19T02:36:53;96007.56;;;-2.32;100.00
69570;BME280;56781;42.292;23.146;2023-02-19T02:39:24;96024.88;;;-2.25;100.00
69570;BME280;56781;42.292;23.146;2023-02-19T02:41:59;96022.03;;;-2.23;100.00
69570;BME280;56781;42.292;23.146;2023-02-19T02:44:44;95987.41;;;-2.45;100.00
69570;BME280;56781;42.292;23.146;2023-02-19T02:47:33;96041.03;;;-2.28;100.00
69570;BME280;56781;42.292;23.146;2023-02-19T02:50:12;96011.78;;;-2.31;100.00
69570;BME280;56781;42.292;23.146;2023-02-19T02:52:42;95990.38;;;-2.21;100.00
69570;BME280;56781;42.292;23.146;2023-02-19T02:55:30;95999.75;;;-2.59;100.00
69570;BME280;56781;42.292;23.146;2023-02-19T02:58:01;95994.34;;;-2.91;100.00
69570;BME280;56781;42.292;23.146;2023-02-19T03:00:30;95996.78;;;-2.76;100.00
69570;BME280;56781;42.292;23.146;2023-02-19T03:03:20;96001.34;;;-2.51;100.00
69570;BME280;56781;42.292;23.146;2023-02-19T03:05:51;96005.50;;;-2.17;100.00
69570;BME280;56781;42.292;23.146;2023-02-19T03:08:28;96044.09;;;-1.86;100.00
69570;BME280;56781;42.292;23.146;2023-02-19T03:11:05;96040.91;;;-2.01;100.00
69570;BME280;56781;42.292;23.146;2023-02-19T03:13:56;96004.38;;;-1.89;100.00
69570;BME280;56781;42.292;23.146;2023-02-19T03:16:44;96003.91;;;-2.25;100.00
69570;BME280;56781;42.292;23.146;2023-02-19T03:19:35;96022.41;;;-2.13;100.00
69570;BME280;56781;42.292;23.146;2023-02-19T03:25:03;96020.53;;;-2.64;100.00
69570;BME280;56781;42.292;23.146;2023-02-19T03:27:50;96056.81;;;-2.54;100.00
69570;BME280;56781;42.292;23.146;2023-02-19T03:30:23;96029.78;;;-2.61;100.00
69570;BME280;56781;42.292;23.146;2023-02-19T03:32:59;96056.53;;;-2.19;100.00
69570;BME280;56781;42.292;23.146;2023-02-19T03:35:32;96042.13;;;-2.04;100.00
69570;BME280;56781;42.292;23.146;2023-02-19T03:38:18;96050.47;;;-2.20;100.00
69570;BME280;56781;42.292;23.146;2023-02-19T03:41:12;96059.16;;;-2.19;100.00
69570;BME280;56781;42.292;23.146;2023-02-19T03:46:39;96030.53;;;-2.28;100.00
69570;BME280;56781;42.292;23.146;2023-02-19T03:49:17;96047.06;;;-2.27;100.00
69570;BME280;56781;42.292;23.146;2023-02-19T03:51:55;96033.03;;;-2.59;100.00
69570;BME280;56781;42.292;23.146;2023-02-19T03:54:43;96017.72;;;-2.82;100.00
69570;BME280;56781;42.292;23.146;2023-02-19T03:57:17;96038.03;;;-2.51;100.00
69570;BME280;56781;42.292;23.146;2023-02-19T04:00:01;96062.00;;;-2.28;100.00
69570;BME280;56781;42.292;23.146;2023-02-19T04:02:46;96033.38;;;-2.36;100.00
69570;BME280;56781;42.292;23.146;2023-02-19T04:05:18;96023.88;;;-2.30;100.00
69570;BME280;56781;42.292;23.146;2023-02-19T04:07:50;96034.69;;;-2.07;100.00
69570;BME280;56781;42.292;23.146;2023-02-19T04:10:19;96068.81;;;-2.13;100.00
69570;BME280;56781;42.292;23.146;2023-02-19T04:12:50;96030.34;;;-2.33;100.00
69570;BME280;56781;42.292;23.146;2023-02-19T04:15:21;96037.84;;;-2.56;100.00
69570;BME280;56781;42.292;23.146;2023-02-19T04:18:04;96044.53;;;-3.14;100.00
69570;BME280;56781;42.292;23.146;2023-02-19T04:20:37;96033.75;;;-3.72;100.00
69570;BME280;56781;42.292;23.146;2023-02-19T04:23:06;96027.09;;;-3.81;100.00
69570;BME280;56781;42.292;23.146;2023-02-19T04:25:34;96063.03;;;-3.35;100.00
69570;BME280;56781;42.292;23.146;2023-02-19T04:28:04;96029.78;;;-3.54;100.00
69570;BME280;56781;42.292;23.146;2023-02-19T04:30:31;96029.97;;;-3.56;100.00
69570;BME280;56781;42.292;23.146;2023-02-19T04:32:58;96037.41;;;-3.53;100.00
69570;BME280;56781;42.292;23.146;2023-02-19T04:35:25;96048.72;;;-3.26;100.00
69570;BME280;56781;42.292;23.146;2023-02-19T04:37:52;96055.41;;;-3.03;100.00
69570;BME280;56781;42.292;23.146;2023-02-19T04:40:20;96033.25;;;-3.21;100.00
69570;BME280;56781;42.292;23.146;2023-02-19T04:42:47;96072.72;;;-3.02;100.00
69570;BME280;56781;42.292;23.146;2023-02-19T04:45:14;96050.75;;;-3.21;100.00
69570;BME280;56781;42.292;23.146;2023-02-19T04:47:41;96067.47;;;-3.16;100.00
69570;BME280;56781;42.292;23.146;2023-02-19T04:50:08;96058.03;;;-3.17;100.00
69570;BME280;56781;42.292;23.146;2023-02-19T04:52:35;96068.91;;;-3.20;100.00
69570;BME280;56781;42.292;23.146;2023-02-19T04:55:02;96046.72;;;-3.24;100.00
69570;BME280;56781;42.292;23.146;2023-02-19T04:57:29;96032.22;;;-3.26;100.00
69570;BME280;56781;42.292;23.146;2023-02-19T04:59:57;96032.44;;;-3.01;100.00
69570;BME280;56781;42.292;23.146;2023-02-19T05:02:24;96051.00;;;-2.76;100.00
69570;BME280;56781;42.292;23.146;2023-02-19T05:04:51;96061.44;;;-2.70;100.00
69570;BME280;56781;42.292;23.146;2023-02-19T05:07:18;96076.19;;;-2.69;100.00
69570;BME280;56781;42.292;23.146;2023-02-19T05:09:45;96049.34;;;-2.57;100.00
69570;BME280;56781;42.292;23.146;2023-02-19T05:12:12;96049.13;;;-2.42;100.00
69570;BME280;56781;42.292;23.146;2023-02-19T05:14:39;96055.34;;;-2.30;100.00
69570;BME280;56781;42.292;23.146;2023-02-19T05:17:06;96041.84;;;-2.40;100.00
69570;BME280;56781;42.292;23.146;2023-02-19T05:19:33;96084.78;;;-2.21;100.00
69570;BME280;56781;42.292;23.146;2023-02-19T05:22:01;96079.75;;;-2.36;100.00
69570;BME280;56781;42.292;23.146;2023-02-19T05:24:28;96066.09;;;-2.85;100.00
69570;BME280;56781;42.292;23.146;2023-02-19T05:26:57;96110.38;;;-3.10;100.00
69570;BME280;56781;42.292;23.146;2023-02-19T05:29:24;96068.94;;;-2.93;100.00
69570;BME280;56781;42.292;23.146;2023-02-19T05:31:51;96070.53;;;-3.05;100.00
69570;BME280;56781;42.292;23.146;2023-02-19T05:34:18;96076.19;;;-2.82;100.00
69570;BME280;56781;42.292;23.146;2023-02-19T05:36:45;96110.44;;;-2.57;100.00
69570;BME280;56781;42.292;23.146;2023-02-19T05:39:12;96077.78;;;-2.94;100.00
69570;BME280;56781;42.292;23.146;2023-02-19T05:41:40;96086.03;;;-2.84;100.00
69570;BME280;56781;42.292;23.146;2023-02-19T05:44:09;96083.03;;;-2.68;100.00
69570;BME280;56781;42.292;23.146;2023-02-19T05:46:36;96098.75;;;-2.54;100.00
69570;BME280;56781;42.292;23.146;2023-02-19T05:49:03;96097.09;;;-2.42;100.00
69570;BME280;56781;42.292;23.146;2023-02-19T05:51:30;96138.63;;;-2.39;100.00
69570;BME280;56781;42.292;23.146;2023-02-19T05:53:58;96102.53;;;-2.37;100.00
69570;BME280;56781;42.292;23.146;2023-02-19T05:58:52;96100.25;;;-2.00;100.00
69570;BME280;56781;42.292;23.146;2023-02-19T06:01:22;96128.81;;;-1.65;100.00
69570;BME280;56781;42.292;23.146;2023-02-19T06:03:49;96133.88;;;-1.25;100.00
69570;BME280;56781;42.292;23.146;2023-02-19T06:06:18;96151.47;;;-1.26;100.00
69570;BME280;56781;42.292;23.146;2023-02-19T06:08:47;96143.16;;;-1.23;100.00
69570;BME280;56781;42.292;23.146;2023-02-19T06:11:14;96144.31;;;-1.12;100.00
69570;BME280;56781;42.292;23.146;2023-02-19T06:13:41;96111.53;;;-1.03;100.00
69570;BME280;56781;42.292;23.146;2023-02-19T06:16:09;96123.66;;;-0.70;100.00
69570;BME280;56781;42.292;23.146;2023-02-19T06:18:37;96157.72;;;-0.57;98.88
69570;BME280;56781;42.292;23.146;2023-02-19T06:21:08;96117.09;;;-0.93;99.68
69570;BME280;56781;42.292;23.146;2023-02-19T06:23:37;96120.50;;;-0.85;99.51
69570;BME280;56781;42.292;23.146;2023-02-19T06:26:06;96157.13;;;-0.59;100.00
69570;BME280;56781;42.292;23.146;2023-02-19T06:28:34;96128.09;;;-0.46;99.09
69570;BME280;56781;42.292;23.146;2023-02-19T06:31:01;96163.28;;;0.04;97.67
69570;BME280;56781;42.292;23.146;2023-02-19T06:33:28;96163.75;;;0.37;95.44
69570;BME280;56781;42.292;23.146;2023-02-19T06:36:03;96127.91;;;0.55;94.60
69570;BME280;56781;42.292;23.146;2023-02-19T06:38:30;96125.97;;;0.92;90.99
69570;BME280;56781;42.292;23.146;2023-02-19T06:41:04;96115.94;;;1.01;90.99
69570;BME280;56781;42.292;23.146;2023-02-19T06:43:32;96127.84;;;1.33;89.52
69570;BME280;56781;42.292;23.146;2023-02-19T06:46:04;96160.50;;;1.86;87.76
69570;BME280;56781;42.292;23.146;2023-02-19T06:48:32;96151.22;;;2.07;86.71
69570;BME280;56781;42.292;23.146;2023-02-19T06:51:00;96139.09;;;2.47;84.37
69570;BME280;56781;42.292;23.146;2023-02-19T06:53:27;96130.19;;;3.05;81.62
69570;BME280;56781;42.292;23.146;2023-02-19T06:55:59;96158.56;;;3.38;82.13
69570;BME280;56781;42.292;23.146;2023-02-19T06:58:27;96102.13;;;4.22;78.04
69570;BME280;56781;42.292;23.146;2023-02-19T07:00:54;96127.69;;;5.53;72.82
69570;BME280;56781;42.292;23.146;2023-02-19T07:03:22;96110.69;;;6.19;68.82
69570;BME280;56781;42.292;23.146;2023-02-19T07:05:49;96092.22;;;7.74;64.63
69570;BME280;56781;42.292;23.146;2023-02-19T07:08:16;96114.53;;;8.50;60.53
69570;BME280;56781;42.292;23.146;2023-02-19T07:10:44;96105.03;;;8.88;59.68
69570;BME280;56781;42.292;23.146;2023-02-19T07:13:11;96123.38;;;9.05;59.98
69570;BME280;56781;42.292;23.146;2023-02-19T07:15:38;96093.41;;;9.13;58.39
69570;BME280;56781;42.292;23.146;2023-02-19T07:18:05;96111.47;;;9.31;59.19
69570;BME280;56781;42.292;23.146;2023-02-19T07:20:36;96098.00;;;9.02;58.52
69570;BME280;56781;42.292;23.146;2023-02-19T07:23:03;96119.28;;;9.23;59.75
69570;BME280;56781;42.292;23.146;2023-02-19T07:25:30;96096.41;;;10.09;56.50
69570;BME280;56781;42.292;23.146;2023-02-19T07:27:57;96131.84;;;9.62;59.12
69570;BME280;56781;42.292;23.146;2023-02-19T07:30:24;96097.56;;;9.69;59.23
69570;BME280;56781;42.292;23.146;2023-02-19T07:32:51;96119.97;;;9.78;59.18
69570;BME280;56781;42.292;23.146;2023-02-19T07:35:18;96103.59;;;10.14;57.48
69570;BME280;56781;42.292;23.146;2023-02-19T07:37:45;96087.16;;;10.98;54.72
69570;BME280;56781;42.292;23.146;2023-02-19T07:40:12;96085.16;;;10.65;55.65
69570;BME280;56781;42.292;23.146;2023-02-19T07:42:39;96102.22;;;11.69;53.21
69570;BME280;56781;42.292;23.146;2023-02-19T07:45:07;96105.53;;;11.99;52.52
69570;BME280;56781;42.292;23.146;2023-02-19T07:47:34;96110.91;;;11.61;52.54
69570;BME280;56781;42.292;23.146;2023-02-19T07:50:01;96098.59;;;12.12;50.91
69570;BME280;56781;42.292;23.146;2023-02-19T07:52:28;96083.03;;;13.47;47.04
69570;BME280;56781;42.292;23.146;2023-02-19T07:54:55;96080.34;;;13.69;45.61
69570;BME280;56781;42.292;23.146;2023-02-19T07:57:22;96085.94;;;12.86;47.04
69570;BME280;56781;42.292;23.146;2023-02-19T07:59:49;96076.00;;;12.73;48.09
69570;BME280;56781;42.292;23.146;2023-02-19T08:02:18;96085.13;;;12.72;49.11
69570;BME280;56781;42.292;23.146;2023-02-19T08:05:05;96080.59;;;13.59;46.19
69570;BME280;56781;42.292;23.146;2023-02-19T08:07:33;96052.34;;;13.93;46.11
69570;BME280;56781;42.292;23.146;2023-02-19T08:10:02;96062.13;;;13.44;46.90
69570;BME280;56781;42.292;23.146;2023-02-19T08:12:58;96063.22;;;14.90;43.11
69570;BME280;56781;42.292;23.146;2023-02-19T08:18:42;96079.94;;;13.76;45.09
69570;BME280;56781;42.292;23.146;2023-02-19T08:21:10;96057.44;;;14.03;44.74
69570;BME280;56781;42.292;23.146;2023-02-19T08:23:38;96046.75;;;14.52;44.13
69570;BME280;56781;42.292;23.146;2023-02-19T08:26:05;96047.41;;;15.49;41.46
69570;BME280;56781;42.292;23.146;2023-02-19T08:28:32;96058.72;;;14.68;42.12
69570;BME280;56781;42.292;23.146;2023-02-19T08:31:02;96061.78;;;14.84;43.22
69570;BME280;56781;42.292;23.146;2023-02-19T08:33:30;96073.66;;;14.43;42.81
69570;BME280;56781;42.292;23.146;2023-02-19T08:36:02;96048.53;;;14.56;42.25
69570;BME280;56781;42.292;23.146;2023-02-19T08:38:31;96070.97;;;14.74;42.05
69570;BME280;56781;42.292;23.146;2023-02-19T08:41:06;96046.22;;;14.72;41.48
69570;BME280;56781;42.292;23.146;2023-02-19T08:43:34;96050.13;;;15.15;40.58
69570;BME280;56781;42.292;23.146;2023-02-19T08:46:01;96027.22;;;14.46;41.39
69570;BME280;56781;42.292;23.146;2023-02-19T08:48:29;96058.09;;;13.55;44.96
69570;BME280;56781;42.292;23.146;2023-02-19T08:50:59;96028.72;;;13.22;44.08
69570;BME280;56781;42.292;23.146;2023-02-19T08:53:26;96017.69;;;12.60;46.73
69570;BME280;56781;42.292;23.146;2023-02-19T08:55:53;96017.69;;;12.60;45.67
69570;BME280;56781;42.292;23.146;2023-02-19T08:58:21;96049.13;;;12.59;45.45
69570;BME280;56781;42.292;23.146;2023-02-19T09:00:48;96031.81;;;12.66;46.99
69570;BME280;56781;42.292;23.146;2023-02-19T09:03:15;96039.84;;;12.79;47.04
69570;BME280;56781;42.292;23.146;2023-02-19T09:05:42;96013.84;;;12.89;45.54
69570;BME280;56781;42.292;23.146;2023-02-19T09:08:10;96010.94;;;12.62;48.34
69570;BME280;56781;42.292;23.146;2023-02-19T09:10:37;96012.50;;;12.77;47.26
69570;BME280;56781;42.292;23.146;2023-02-19T09:13:04;96009.84;;;13.00;46.96
69570;BME280;56781;42.292;23.146;2023-02-19T09:15:31;95966.06;;;12.63;46.57
69570;BME280;56781;42.292;23.146;2023-02-19T09:17:59;96019.16;;;13.30;45.83
69570;BME280;56781;42.292;23.146;2023-02-19T09:20:26;95976.22;;;12.52;47.51
69570;BME280;56781;42.292;23.146;2023-02-19T09:22:57;95984.72;;;13.18;47.17
69570;BME280;56781;42.292;23.146;2023-02-19T09:25:24;95969.97;;;13.52;46.46
69570;BME280;56781;42.292;23.146;2023-02-19T09:27:55;95974.75;;;13.64;46.13
69570;BME280;56781;42.292;23.146;2023-02-19T09:30:22;95976.16;;;13.61;45.08
69570;BME280;56781;42.292;23.146;2023-02-19T09:32:50;95971.63;;;13.70;45.29
69570;BME280;56781;42.292;23.146;2023-02-19T09:35:17;95951.47;;;13.59;44.96
69570;BME280;56781;42.292;23.146;2023-02-19T09:37:44;95984.53;;;13.82;44.78
69570;BME280;56781;42.292;23.146;2023-02-19T09:40:12;95949.34;;;13.79;45.97
69570;BME280;56781;42.292;23.146;2023-02-19T09:42:41;95944.75;;;13.48;45.52
69570;BME280;56781;42.292;23.146;2023-02-19T09:45:17;95929.28;;;13.85;44.76
69570;BME280;56781;42.292;23.146;2023-02-19T09:47:45;95927.03;;;14.18;44.70
69570;BME280;56781;42.292;23.146;2023-02-19T09:50:17;95945.13;;;14.44;42.32
69570;BME280;56781;42.292;23.146;2023-02-19T09:52:58;95946.56;;;14.41;43.25
69570;BME280;56781;42.292;23.146;2023-02-19T09:55:33;95925.63;;;14.21;43.28
69570;BME280;56781;42.292;23.146;2023-02-19T09:58:29;95909.31;;;14.34;42.16
69570;BME280;56781;42.292;23.146;2023-02-19T10:00:57;95935.38;;;14.56;42.57
69570;BME280;56781;42.292;23.146;2023-02-19T10:03:36;95917.47;;;14.95;42.57
69570;BME280;56781;42.292;23.146;2023-02-19T10:06:13;95886.44;;;14.63;42.35
69570;BME280;56781;42.292;23.146;2023-02-19T10:08:44;95873.59;;;14.69;41.89
69570;BME280;56781;42.292;23.146;2023-02-19T10:11:13;95878.03;;;14.82;42.38
69570;BME280;56781;42.292;23.146;2023-02-19T10:13:44;95875.28;;;15.25;40.14
69570;BME280;56781;42.292;23.146;2023-02-19T10:16:20;95858.13;;;15.21;39.82
69570;BME280;56781;42.292;23.146;2023-02-19T10:18:49;95872.31;;;14.66;39.75
69570;BME280;56781;42.292;23.146;2023-02-19T10:21:19;95868.78;;;14.48;40.91
69570;BME280;56781;42.292;23.146;2023-02-19T10:23:51;95855.81;;;14.85;40.76
69570;BME280;56781;42.292;23.146;2023-02-19T10:26:21;95859.56;;;14.40;41.57
69570;BME280;56781;42.292;23.146;2023-02-19T10:28:49;95861.19;;;14.50;42.45
69570;BME280;56781;42.292;23.146;2023-02-19T10:31:21;95841.41;;;14.72;41.63
69570;BME280;56781;42.292;23.146;2023-02-19T10:33:56;95837.22;;;15.10;41.38
69570;BME280;56781;42.292;23.146;2023-02-19T10:38:58;95817.66;;;15.30;40.30
69570;BME280;56781;42.292;23.146;2023-02-19T10:41:27;95828.00;;;15.58;40.63
69570;BME280;56781;42.292;23.146;2023-02-19T10:44:04;95816.81;;;15.85;39.63
69570;BME280;56781;42.292;23.146;2023-02-19T10:46:35;95803.03;;;16.08;38.25
69570;BME280;56781;42.292;23.146;2023-02-19T10:49:39;95813.63;;;16.13;39.06
69570;BME280;56781;42.292;23.146;2023-02-19T10:52:34;95795.72;;;15.79;38.31
69570;BME280;56781;42.292;23.146;2023-02-19T10:55:25;95819.50;;;16.15;38.66
69570;BME280;56781;42.292;23.146;2023-02-19T10:57:54;95803.69;;;16.47;39.85
69570;BME280;56781;42.292;23.146;2023-02-19T11:00:27;95774.09;;;16.50;38.76
69570;BME280;56781;42.292;23.146;2023-02-19T11:03:19;95773.34;;;16.62;37.62
69570;BME280;56781;42.292;23.146;2023-02-19T11:06:02;95785.22;;;16.49;37.95
69570;BME280;56781;42.292;23.146;2023-02-19T11:08:33;95739.84;;;16.00;37.59
69570;BME280;56781;42.292;23.146;2023-02-19T11:11:05;95754.47;;;16.20;37.53
69570;BME280;56781;42.292;23.146;2023-02-19T11:13:33;95739.50;;;16.44;36.05
69570;BME280;56781;42.292;23.146;2023-02-19T11:16:04;95748.44;;;16.56;37.92
69570;BME280;56781;42.292;23.146;2023-02-19T11:18:31;95732.75;;;16.50;36.95
69570;BME280;56781;42.292;23.146;2023-02-19T11:21:04;95728.50;;;15.56;38.06
69570;BME280;56781;42.292;23.146;2023-02-19T11:23:42;95725.47;;;15.58;38.24
69570;BME280;56781;42.292;23.146;2023-02-19T11:26:22;95740.09;;;16.28;38.05
69570;BME280;56781;42.292;23.146;2023-02-19T11:29:00;95706.25;;;16.64;35.85
69570;BME280;56781;42.292;23.146;2023-02-19T11:31:30;95714.88;;;16.91;35.97
69570;BME280;56781;42.292;23.146;2023-02-19T11:34:02;95708.91;;;16.31;35.68
69570;BME280;56781;42.292;23.146;2023-02-19T11:36:34;95695.59;;;16.47;35.96
69570;BME280;56781;42.292;23.146;2023-02-19T11:50:13;95702.94;;;17.04;35.35
69570;BME280;56781;42.292;23.146;2023-02-19T11:53:16;95684.38;;;17.52;37.00
69570;BME280;56781;42.292;23.146;2023-02-19T11:55:53;95679.81;;;17.68;33.86
69570;BME280;56781;42.292;23.146;2023-02-19T12:01:21;95653.84;;;17.91;33.48
69570;BME280;56781;42.292;23.146;2023-02-19T12:17:53;95645.03;;;17.94;33.23
69570;BME280;56781;42.292;23.146;2023-02-19T12:20:26;95647.69;;;18.07;32.65
69570;BME280;56781;42.292;23.146;2023-02-19T12:43:16;95592.09;;;18.41;31.41
69570;BME280;56781;42.292;23.146;2023-02-19T12:51:43;95525.44;;;18.40;30.46
69570;BME280;56781;42.292;23.146;2023-02-19T12:59:39;95531.72;;;18.12;31.73
69570;BME280;56781;42.292;23.146;2023-02-19T13:02:32;95554.41;;;18.36;32.00
69570;BME280;56781;42.292;23.146;2023-02-19T13:05:22;95525.59;;;18.15;31.52
69570;BME280;56781;42.292;23.146;2023-02-19T13:08:03;95548.91;;;18.32;32.26
69570;BME280;56781;42.292;23.146;2023-02-19T13:11:00;95529.00;;;18.12;31.84
69570;BME280;56781;42.292;23.146;2023-02-19T13:13:42;95523.44;;;18.05;32.40
69570;BME280;56781;42.292;23.146;2023-02-19T13:16:17;95498.06;;;18.29;32.65
69570;BME280;56781;42.292;23.146;2023-02-19T13:21:16;95515.03;;;18.42;31.14
69570;BME280;56781;42.292;23.146;2023-02-19T13:24:11;95498.34;;;18.56;32.39
69570;BME280;56781;42.292;23.146;2023-02-19T13:32:52;95508.31;;;18.52;31.50
69570;BME280;56781;42.292;23.146;2023-02-19T13:37:54;95481.81;;;18.45;31.33
69570;BME280;56781;42.292;23.146;2023-02-19T13:40:34;95493.63;;;18.53;30.08
69570;BME280;56781;42.292;23.146;2023-02-19T13:43:03;95468.91;;;18.23;30.53
69570;BME280;56781;42.292;23.146;2023-02-19T13:45:38;95476.84;;;18.31;31.42
69570;BME280;56781;42.292;23.146;2023-02-19T13:48:25;95493.28;;;18.23;30.33
69570;BME280;56781;42.292;23.146;2023-02-19T13:58:57;95446.94;;;17.96;32.06
69570;BME280;56781;42.292;23.146;2023-02-19T14:14:51;95451.91;;;17.94;31.88
69570;BME280;56781;42.292;23.146;2023-02-19T14:17:26;95442.31;;;17.81;31.38
69570;BME280;56781;42.292;23.146;2023-02-19T14:30:58;95425.06;;;17.73;31.95
69570;BME280;56781;42.292;23.146;2023-02-19T14:36:04;95427.06;;;17.60;32.22
69570;BME280;56781;42.292;23.146;2023-02-19T14:38:38;95439.28;;;17.54;32.84
69570;BME280;56781;42.292;23.146;2023-02-19T14:41:10;95410.06;;;17.32;32.38
69570;BME280;56781;42.292;23.146;2023-02-19T14:43:39;95420.38;;;17.42;32.20
69570;BME280;56781;42.292;23.146;2023-02-19T14:48:47;95415.97;;;17.21;32.94
69570;BME280;56781;42.292;23.146;2023-02-19T14:51:24;95410.56;;;17.21;32.54
69570;BME280;56781;42.292;23.146;2023-02-19T14:53:54;95434.56;;;17.23;32.89
69570;BME280;56781;42.292;23.146;2023-02-19T14:56:25;95414.38;;;17.20;32.49
69570;BME280;56781;42.292;23.146;2023-02-19T14:59:06;95414.91;;;17.10;32.88
69570;BME280;56781;42.292;23.146;2023-02-19T15:01:33;95426.84;;;17.09;33.10
69570;BME280;56781;42.292;23.146;2023-02-19T15:04:01;95415.56;;;17.07;33.15
69570;BME280;56781;42.292;23.146;2023-02-19T15:06:29;95434.94;;;17.09;33.36
69570;BME280;56781;42.292;23.146;2023-02-19T15:09:04;95398.41;;;16.75;33.51
69570;BME280;56781;42.292;23.146;2023-02-19T15:11:33;95402.38;;;16.65;34.33
69570;BME280;56781;42.292;23.146;2023-02-19T15:14:02;95414.22;;;16.48;34.32
69570;BME280;56781;42.292;23.146;2023-02-19T15:16:33;95405.34;;;16.35;34.83
69570;BME280;56781;42.292;23.146;2023-02-19T15:19:04;95421.00;;;16.30;34.70
69570;BME280;56781;42.292;23.146;2023-02-19T15:21:34;95408.97;;;16.39;34.40
69570;BME280;56781;42.292;23.146;2023-02-19T15:24:04;95423.81;;;16.46;34.44
69570;BME280;56781;42.292;23.146;2023-02-19T15:26:40;95399.97;;;16.23;35.11
69570;BME280;56781;42.292;23.146;2023-02-19T15:29:10;95412.22;;;16.21;35.22